createdAt,value
2022-12-19T00:01:58.676Z,-3.30
2022-12-19T00:04:26.796Z,-3.30
2022-12-19T00:06:54.854Z,-3.20
2022-12-19T00:09:22.569Z,-3.20
2022-12-19T00:11:50.376Z,-3.20
2022-12-19T00:14:19.506Z,-3.20
2022-12-19T00:16:47.554Z,-3.20
2022-12-19T00:19:15.523Z,-3.20
2022-12-19T00:21:43.292Z,-3.20
2022-12-19T00:24:20.532Z,-3.20
2022-12-19T00:26:50.177Z,-3.20
2022-12-19T00:29:19.333Z,-3.20
2022-12-19T00:31:47.247Z,-3.20
2022-12-19T00:34:15.478Z,-3.20
2022-12-19T00:36:43.561Z,-3.20
2022-12-19T00:39:11.764Z,-3.30
2022-12-19T00:41:41.980Z,-3.30
2022-12-19T00:44:12.701Z,-3.40
2022-12-19T00:46:42.004Z,-3.20
2022-12-19T00:49:11.661Z,-3.40
2022-12-19T00:51:39.448Z,-3.60
2022-12-19T00:54:07.915Z,-3.50
2022-12-19T00:56:38.509Z,-3.50
2022-12-19T00:59:06.915Z,-3.40
2022-12-19T01:01:36.500Z,-3.50
2022-12-19T01:06:57.867Z,-3.40
2022-12-19T01:09:29.950Z,-3.50
2022-12-19T01:12:15.101Z,-3.50
2022-12-19T01:14:42.965Z,-3.60
2022-12-19T01:17:10.891Z,-3.50
2022-12-19T01:19:44.016Z,-3.60
2022-12-19T01:22:12.922Z,-3.50
2022-12-19T01:24:41.198Z,-3.50
2022-12-19T01:27:09.016Z,-3.50
2022-12-19T01:29:45.310Z,-3.60
2022-12-19T01:32:20.829Z,-3.60
2022-12-19T01:34:50.336Z,-3.50
2022-12-19T01:37:18.249Z,-3.50
2022-12-19T01:39:46.323Z,-3.50
2022-12-19T01:42:16.703Z,-3.60
2022-12-19T01:45:26.583Z,-3.70
2022-12-19T01:48:05.040Z,-3.60
2022-12-19T01:50:39.559Z,-3.60
2022-12-19T01:53:12.065Z,-3.60
2022-12-19T01:55:42.001Z,-3.70
2022-12-19T01:58:11.401Z,-3.60
2022-12-19T02:00:39.344Z,-3.60
2022-12-19T02:03:12.761Z,-3.70
2022-12-19T02:05:42.404Z,-3.70
2022-12-19T02:08:10.663Z,-3.70
2022-12-19T02:10:38.466Z,-3.90
2022-12-19T02:13:07.415Z,-3.80
2022-12-19T02:15:45.232Z,-3.80
2022-12-19T02:18:23.027Z,-3.80
2022-12-19T02:21:12.871Z,-4.10
2022-12-19T02:24:14.275Z,-4.20
2022-12-19T02:27:11.705Z,-4.20
2022-12-19T02:30:00.986Z,-4.30
2022-12-19T02:32:36.279Z,-4.20
2022-12-19T02:35:10.779Z,-4.20
2022-12-19T02:37:46.506Z,-4.20
2022-12-19T02:40:18.584Z,-4.10
2022-12-19T02:42:54.572Z,-4.10
2022-12-19T02:45:28.935Z,-4.30
2022-12-19T02:48:02.323Z,-4.40
2022-12-19T02:50:38.405Z,-4.40
2022-12-19T02:53:06.538Z,-4.30
2022-12-19T02:55:43.237Z,-4.20
2022-12-19T02:58:33.618Z,-4.20
2022-12-19T03:01:12.007Z,-4.10
2022-12-19T03:03:48.727Z,-4.10
2022-12-19T03:06:25.294Z,-4.30
2022-12-19T03:09:00.944Z,-4.20
2022-12-19T03:11:35.026Z,-4.20
2022-12-19T03:14:07.412Z,-4.20
2022-12-19T03:16:36.242Z,-4.30
2022-12-19T03:19:06.223Z,-4.40
2022-12-19T03:21:37.816Z,-4.20
2022-12-19T03:24:08.061Z,-4.10
2022-12-19T03:26:54.247Z,-4.10
2022-12-19T03:29:29.383Z,-4.10
2022-12-19T03:31:58.242Z,-4.00
2022-12-19T03:34:32.404Z,-4.00
2022-12-19T03:37:04.196Z,-4.00
2022-12-19T03:39:33.522Z,-4.00
2022-12-19T03:42:20.678Z,-3.90
2022-12-19T03:44:51.151Z,-4.00
2022-12-19T03:47:24.752Z,-3.90
2022-12-19T03:49:54.519Z,-3.80
2022-12-19T03:52:30.758Z,-3.90
2022-12-19T03:55:07.231Z,-3.80
2022-12-19T03:57:41.186Z,-3.70
2022-12-19T04:00:12.677Z,-3.80
2022-12-19T04:02:44.191Z,-3.80
2022-12-19T04:05:19.831Z,-3.80
2022-12-19T04:07:50.008Z,-3.70
2022-12-19T04:10:21.829Z,-3.80
2022-12-19T04:12:54.035Z,-3.60
2022-12-19T04:15:30.345Z,-3.60
2022-12-19T04:17:59.899Z,-3.50
2022-12-19T04:20:31.209Z,-3.60
2022-12-19T04:23:05.291Z,-3.60
2022-12-19T04:25:37.814Z,-3.50
2022-12-19T04:28:10.960Z,-3.50
2022-12-19T04:30:40.710Z,-3.50
2022-12-19T04:33:08.504Z,-3.50
2022-12-19T04:35:37.939Z,-3.40
2022-12-19T04:38:07.117Z,-3.40
2022-12-19T04:40:40.995Z,-3.30
2022-12-19T04:43:09.699Z,-3.40
2022-12-19T04:45:37.660Z,-3.30
2022-12-19T04:48:05.950Z,-3.30
2022-12-19T04:50:37.705Z,-3.20
2022-12-19T04:53:06.104Z,-3.20
2022-12-19T04:55:33.897Z,-3.20
2022-12-19T04:58:01.710Z,-3.00
2022-12-19T05:00:29.502Z,-3.10
2022-12-19T05:02:57.828Z,-3.10
2022-12-19T05:05:26.008Z,-3.00
2022-12-19T05:07:56.003Z,-3.00
2022-12-19T05:10:23.800Z,-3.00
2022-12-19T05:12:51.650Z,-2.90
2022-12-19T05:15:19.578Z,-2.90
2022-12-19T05:17:47.428Z,-3.00
2022-12-19T05:20:15.236Z,-3.10
2022-12-19T05:22:43.027Z,-2.90
2022-12-19T05:25:12.389Z,-2.80
2022-12-19T05:27:40.198Z,-2.80
2022-12-19T05:30:08.983Z,-2.80
2022-12-19T05:32:36.830Z,-2.80
2022-12-19T05:35:04.929Z,-2.80
2022-12-19T05:37:32.670Z,-2.70
2022-12-19T05:40:00.431Z,-2.70
2022-12-19T05:42:29.615Z,-2.60
2022-12-19T05:44:57.843Z,-2.60
2022-12-19T05:47:25.591Z,-2.60
2022-12-19T05:49:53.350Z,-2.50
2022-12-19T05:52:21.229Z,-2.50
2022-12-19T05:54:49.139Z,-2.50
2022-12-19T05:57:17.161Z,-2.40
2022-12-19T05:59:46.259Z,-2.40
2022-12-19T06:02:14.212Z,-2.40
2022-12-19T06:04:42.254Z,-2.40
2022-12-19T06:07:10.276Z,-2.30
2022-12-19T06:09:38.084Z,-2.30
2022-12-19T06:12:06.375Z,-2.30
2022-12-19T06:14:34.119Z,-2.30
2022-12-19T06:17:03.249Z,-2.30
2022-12-19T06:19:31.260Z,-2.30
2022-12-19T06:21:59.210Z,-2.30
2022-12-19T06:24:27.143Z,-2.10
2022-12-19T06:26:54.887Z,-2.20
2022-12-19T06:29:22.636Z,-2.20
2022-12-19T06:31:50.631Z,-2.20
2022-12-19T06:34:46.908Z,-2.20
2022-12-19T06:37:08.501Z,-2.20
2022-12-19T06:39:36.773Z,-2.10
2022-12-19T06:42:21.890Z,-2.10
2022-12-19T06:44:50.696Z,-2.10
2022-12-19T06:47:18.960Z,-2.10
2022-12-19T06:49:48.425Z,-2.10
2022-12-19T06:52:16.806Z,-2.10
2022-12-19T06:54:44.611Z,-2.00
2022-12-19T06:57:12.389Z,-2.10
2022-12-19T06:59:40.175Z,-2.00
2022-12-19T07:02:23.173Z,-2.00
2022-12-19T07:04:57.814Z,-2.00
2022-12-19T07:07:25.597Z,-1.90
2022-12-19T07:09:53.340Z,-2.00
2022-12-19T07:12:21.216Z,-1.90
2022-12-19T07:14:53.125Z,-1.80
2022-12-19T07:17:23.393Z,-1.90
2022-12-19T07:19:54.352Z,-1.80
2022-12-19T07:22:22.754Z,-1.70
2022-12-19T07:24:50.615Z,-1.80
2022-12-19T07:27:18.431Z,-1.70
2022-12-19T07:29:46.226Z,-1.60
2022-12-19T07:32:14.013Z,-1.60
2022-12-19T07:34:41.824Z,-1.60
2022-12-19T07:37:11.050Z,-1.50
2022-12-19T07:39:38.966Z,-1.50
2022-12-19T07:42:06.796Z,-1.40
2022-12-19T07:44:34.616Z,-1.30
2022-12-19T07:47:02.386Z,-1.30
2022-12-19T07:49:30.369Z,-1.30
2022-12-19T07:51:58.135Z,-1.20
2022-12-19T07:54:27.299Z,-1.10
2022-12-19T07:56:55.064Z,-1.10
2022-12-19T07:59:28.940Z,-1.00
2022-12-19T08:01:58.773Z,-0.90
2022-12-19T08:04:27.337Z,-0.90
2022-12-19T08:06:55.069Z,-0.80
2022-12-19T08:09:22.859Z,-0.70
2022-12-19T08:11:52.114Z,-0.70
2022-12-19T08:14:20.123Z,-0.50
2022-12-19T08:17:18.926Z,-0.50
2022-12-19T08:19:35.911Z,-0.40
2022-12-19T08:22:03.743Z,-0.40
2022-12-19T08:24:31.854Z,-0.30
2022-12-19T08:27:00.957Z,-0.20
2022-12-19T08:29:28.947Z,0.00
2022-12-19T08:31:56.714Z,0.10
2022-12-19T08:34:24.715Z,0.20
2022-12-19T08:36:52.565Z,0.40
2022-12-19T08:39:20.311Z,0.40
2022-12-19T08:41:48.068Z,0.50
2022-12-19T08:44:17.289Z,0.60
2022-12-19T08:46:50.058Z,0.70
2022-12-19T08:49:19.338Z,0.80
2022-12-19T08:51:47.699Z,0.90
2022-12-19T08:54:15.714Z,1.00
2022-12-19T08:56:46.269Z,1.00
2022-12-19T08:59:15.906Z,1.20
2022-12-19T09:01:55.286Z,1.20
2022-12-19T09:05:57.538Z,1.20
2022-12-19T09:07:11.719Z,1.30
2022-12-19T09:09:43.598Z,1.40
2022-12-19T09:12:11.510Z,1.50
2022-12-19T09:14:39.335Z,1.50
2022-12-19T09:17:08.694Z,1.60
2022-12-19T09:19:36.715Z,1.50
2022-12-19T09:22:05.181Z,1.60
2022-12-19T09:24:33.276Z,1.60
2022-12-19T09:27:01.195Z,1.60
2022-12-19T09:29:34.887Z,1.70
2022-12-19T09:32:03.280Z,1.80
2022-12-19T09:34:37.625Z,1.70
2022-12-19T09:37:08.032Z,1.80
2022-12-19T09:39:36.641Z,1.90
2022-12-19T09:42:41.114Z,2.00
2022-12-19T09:45:31.785Z,2.10
2022-12-19T09:48:01.700Z,2.00
2022-12-19T09:50:40.164Z,2.00
2022-12-19T09:53:17.826Z,2.10
2022-12-19T09:55:46.597Z,2.10
2022-12-19T09:58:22.811Z,2.10
2022-12-19T10:00:58.675Z,2.10
2022-12-19T10:03:32.296Z,2.20
2022-12-19T10:07:12.593Z,2.30
2022-12-19T10:11:26.540Z,2.30
2022-12-19T10:12:45.315Z,2.40
2022-12-19T10:15:07.341Z,2.40
2022-12-19T10:17:51.682Z,2.40
2022-12-19T10:20:24.474Z,2.50
2022-12-19T10:23:02.352Z,2.40
2022-12-19T10:25:38.295Z,2.50
2022-12-19T10:28:20.311Z,2.70
2022-12-19T10:30:54.596Z,2.70
2022-12-19T10:33:29.807Z,2.80
2022-12-19T10:36:02.668Z,2.80
2022-12-19T10:38:47.956Z,2.70
2022-12-19T10:41:23.202Z,2.80
2022-12-19T10:43:58.992Z,2.80
2022-12-19T10:46:38.137Z,2.80
2022-12-19T10:49:14.332Z,2.80
2022-12-19T10:51:42.781Z,2.80
2022-12-19T10:54:11.958Z,2.90
2022-12-19T10:56:39.720Z,3.00
2022-12-19T10:59:18.168Z,3.00
2022-12-19T11:01:47.124Z,3.00
2022-12-19T11:04:32.186Z,3.00
2022-12-19T11:07:18.271Z,3.10
2022-12-19T11:10:08.836Z,3.20
2022-12-19T11:18:17.174Z,3.20
2022-12-19T11:18:27.783Z,3.20
2022-12-19T11:28:17.111Z,3.20
2022-12-19T11:29:27.404Z,3.10
2022-12-19T11:29:33.108Z,2.90
2022-12-19T11:30:35.805Z,3.10
2022-12-19T11:32:41.288Z,3.20
2022-12-19T11:35:18.859Z,3.30
2022-12-19T11:37:55.509Z,3.40
2022-12-19T11:40:32.565Z,3.50
2022-12-19T11:46:01.572Z,3.70
2022-12-19T11:48:40.957Z,3.50
2022-12-19T11:51:18.424Z,3.40
2022-12-19T11:53:54.732Z,3.40
2022-12-19T11:56:25.589Z,3.50
2022-12-19T11:58:58.921Z,3.50
2022-12-19T12:01:44.023Z,3.20
2022-12-19T12:04:35.994Z,3.10
2022-12-19T12:07:06.259Z,3.30
2022-12-19T12:14:42.293Z,3.40
2022-12-19T12:24:50.971Z,3.50
2022-12-19T12:26:11.153Z,3.50
2022-12-19T12:31:16.502Z,3.60
2022-12-19T12:31:18.800Z,3.50
2022-12-19T12:31:32.656Z,3.50
2022-12-19T12:31:45.832Z,3.50
2022-12-19T12:32:03.987Z,3.40
2022-12-19T12:35:51.346Z,3.40
2022-12-19T12:39:33.879Z,3.40
2022-12-19T12:42:09.726Z,3.30
2022-12-19T12:44:45.089Z,3.30
2022-12-19T12:47:18.294Z,3.40
2022-12-19T12:49:51.784Z,3.40
2022-12-19T12:52:22.673Z,3.40
2022-12-19T12:54:52.123Z,3.40
2022-12-19T12:57:34.749Z,3.40
2022-12-19T13:00:31.763Z,3.60
2022-12-19T13:03:06.845Z,3.50
2022-12-19T13:06:06.784Z,3.50
2022-12-19T13:08:38.896Z,3.70
2022-12-19T13:11:12.263Z,3.70
2022-12-19T13:13:50.960Z,3.80
2022-12-19T13:16:51.164Z,3.80
2022-12-19T13:19:27.923Z,3.80
2022-12-19T13:22:19.955Z,3.80
2022-12-19T13:24:50.971Z,3.60
2022-12-19T13:27:42.698Z,3.60
2022-12-19T13:30:21.130Z,3.50
2022-12-19T13:33:10.892Z,3.40
2022-12-19T13:37:31.328Z,3.40
2022-12-19T13:40:02.473Z,3.50
2022-12-19T13:41:48.503Z,3.40
2022-12-19T13:44:20.611Z,3.40
2022-12-19T13:46:48.703Z,3.30
2022-12-19T13:49:20.768Z,3.30
2022-12-19T13:51:50.457Z,3.20
2022-12-19T13:54:24.865Z,3.20
2022-12-19T13:56:54.393Z,3.10
2022-12-19T13:59:24.468Z,3.10
2022-12-19T14:01:53.995Z,3.10
2022-12-19T14:04:33.109Z,3.00
2022-12-19T14:07:03.230Z,3.00
2022-12-19T14:11:28.031Z,2.90
2022-12-19T14:14:00.714Z,2.90
2022-12-19T14:15:37.823Z,2.70
2022-12-19T14:18:42.473Z,2.80
2022-12-19T14:22:03.651Z,2.80
2022-12-19T14:24:12.931Z,2.80
2022-12-19T14:28:18.147Z,2.60
2022-12-19T14:30:02.307Z,2.70
2022-12-19T14:33:41.076Z,2.70
2022-12-19T14:36:10.648Z,2.50
2022-12-19T14:39:20.543Z,2.40
2022-12-19T14:41:08.074Z,2.30
2022-12-19T14:44:00.111Z,2.30
2022-12-19T14:53:52.384Z,2.30
2022-12-19T14:54:08.628Z,2.20
2022-12-19T14:54:33.733Z,2.00
2022-12-19T14:56:16.204Z,1.90
2022-12-19T14:58:52.271Z,1.90
2022-12-19T15:01:23.474Z,1.80
2022-12-19T15:04:50.502Z,1.70
2022-12-19T15:07:09.127Z,1.70
2022-12-19T15:10:58.089Z,1.70
2022-12-19T15:14:56.894Z,1.70
2022-12-19T15:15:41.133Z,1.60
2022-12-19T15:18:22.008Z,1.60
2022-12-19T15:20:50.216Z,1.50
2022-12-19T15:23:21.983Z,1.40
2022-12-19T15:26:08.158Z,1.40
2022-12-19T15:28:40.423Z,1.40
2022-12-19T15:31:16.217Z,1.20
2022-12-19T15:34:14.398Z,1.20
2022-12-19T15:36:33.327Z,1.10
2022-12-19T15:39:01.114Z,1.20
2022-12-19T15:41:28.936Z,1.20
2022-12-19T15:44:05.521Z,1.20
2022-12-19T15:46:34.243Z,1.20
2022-12-19T15:49:03.580Z,1.20
2022-12-19T15:51:31.335Z,1.10
2022-12-19T15:54:22.183Z,1.20
2022-12-19T15:56:50.734Z,1.10
2022-12-19T15:59:36.451Z,1.10
2022-12-19T16:02:15.851Z,1.10
2022-12-19T16:04:46.452Z,1.10
2022-12-19T16:07:16.849Z,1.00
2022-12-19T16:09:44.683Z,1.10
2022-12-19T16:12:16.401Z,1.10
2022-12-19T16:14:45.093Z,1.10
2022-12-19T16:17:18.993Z,1.10
2022-12-19T16:19:48.356Z,1.10
2022-12-19T16:22:20.988Z,1.10
2022-12-19T16:24:48.808Z,1.10
2022-12-19T16:27:23.874Z,1.00
2022-12-19T16:29:52.189Z,1.00
2022-12-19T16:32:22.952Z,1.10
2022-12-19T16:34:52.730Z,1.00
2022-12-19T16:37:21.045Z,1.00
2022-12-19T16:39:48.813Z,1.00
2022-12-19T16:42:17.626Z,1.00
2022-12-19T16:44:47.763Z,1.00
2022-12-19T16:47:17.688Z,1.00
2022-12-19T16:49:45.810Z,0.90
2022-12-19T16:52:15.249Z,0.90
2022-12-19T16:54:43.026Z,0.90
2022-12-19T16:57:20.567Z,1.00
2022-12-19T16:59:49.458Z,0.90
2022-12-19T17:02:41.531Z,0.90
2022-12-19T17:05:20.379Z,0.80
2022-12-19T17:07:49.998Z,0.70
2022-12-19T17:10:22.790Z,0.80
2022-12-19T17:12:54.242Z,0.80
2022-12-19T17:15:28.024Z,0.90
2022-12-19T17:17:57.939Z,0.80
2022-12-19T17:20:28.337Z,0.80
2022-12-19T17:22:57.708Z,0.80
2022-12-19T17:25:27.411Z,0.70
2022-12-19T17:27:56.543Z,0.80
2022-12-19T17:30:24.491Z,0.80
2022-12-19T17:32:55.565Z,0.80
2022-12-19T17:35:28.189Z,0.80
2022-12-19T17:37:59.379Z,0.80
2022-12-19T17:40:30.840Z,0.80
2022-12-19T17:42:59.464Z,0.80
2022-12-19T17:45:29.562Z,0.80
2022-12-19T17:48:03.113Z,0.80
2022-12-19T17:50:35.494Z,0.80
2022-12-19T17:53:04.688Z,0.80
2022-12-19T17:55:33.292Z,0.70
2022-12-19T17:58:01.087Z,0.80
2022-12-19T18:00:31.977Z,0.80
2022-12-19T18:03:04.500Z,0.80
2022-12-19T18:05:35.918Z,0.80
2022-12-19T18:08:17.288Z,0.70
2022-12-19T18:10:45.172Z,0.80
2022-12-19T18:13:12.919Z,0.70
2022-12-19T18:15:41.602Z,0.80
2022-12-19T18:18:14.174Z,0.70
2022-12-19T18:20:43.642Z,0.70
2022-12-19T18:23:17.401Z,0.80
2022-12-19T18:25:45.671Z,0.80
2022-12-19T18:28:14.061Z,0.80
2022-12-19T18:30:42.445Z,0.90
2022-12-19T18:33:16.579Z,0.90
2022-12-19T18:35:47.397Z,0.90
2022-12-19T18:38:18.315Z,0.90
2022-12-19T18:40:46.647Z,0.90
2022-12-19T18:43:15.224Z,0.90
2022-12-19T18:45:44.910Z,0.90
2022-12-19T18:48:18.340Z,0.90
2022-12-19T18:50:46.108Z,0.90
2022-12-19T18:53:17.958Z,0.90
2022-12-19T18:55:46.359Z,0.90
2022-12-19T18:58:14.280Z,0.90
2022-12-19T19:00:42.480Z,0.90
2022-12-19T19:03:15.631Z,0.90
2022-12-19T19:05:44.073Z,1.00
2022-12-19T19:08:19.869Z,1.00
2022-12-19T19:10:49.475Z,1.00
2022-12-19T19:13:19.075Z,1.00
2022-12-19T19:15:49.483Z,1.00
2022-12-19T19:18:20.838Z,1.00
2022-12-19T19:20:55.635Z,0.90
2022-12-19T19:23:31.555Z,0.90
2022-12-19T19:25:59.439Z,0.90
2022-12-19T19:28:27.168Z,0.90
2022-12-19T19:30:55.786Z,0.80
2022-12-19T19:33:26.775Z,0.80
2022-12-19T19:35:58.766Z,0.80
2022-12-19T19:38:28.240Z,0.70
2022-12-19T19:40:56.025Z,0.70
2022-12-19T19:43:23.979Z,0.70
2022-12-19T19:45:52.214Z,0.70
2022-12-19T19:48:20.038Z,0.70
2022-12-19T19:50:49.184Z,0.70
2022-12-19T19:53:16.935Z,0.70
2022-12-19T19:55:46.145Z,0.70
2022-12-19T19:58:13.989Z,0.70
2022-12-19T20:00:42.966Z,0.80
2022-12-19T20:03:12.872Z,0.80
2022-12-19T20:05:43.094Z,0.70
2022-12-19T20:08:11.002Z,0.70
2022-12-19T20:10:38.929Z,0.70
2022-12-19T20:13:09.335Z,0.70
2022-12-19T20:15:37.140Z,0.60
2022-12-19T20:18:05.031Z,0.60
2022-12-19T20:20:34.144Z,0.60
2022-12-19T20:23:02.438Z,0.50
2022-12-19T20:25:30.156Z,0.50
2022-12-19T20:27:58.053Z,0.50
2022-12-19T20:30:27.202Z,0.50
2022-12-19T20:32:55.797Z,0.50
2022-12-19T20:35:23.708Z,0.50
2022-12-19T20:37:51.506Z,0.60
2022-12-19T20:40:19.463Z,0.50
2022-12-19T20:42:47.285Z,0.60
2022-12-19T20:45:15.140Z,0.50
2022-12-19T20:47:44.268Z,0.50
2022-12-19T20:50:13.103Z,0.50
2022-12-19T20:52:40.881Z,0.50
2022-12-19T20:55:10.621Z,0.50
2022-12-19T20:57:38.453Z,0.60
2022-12-19T21:00:08.775Z,0.60
2022-12-19T21:03:00.629Z,0.60
2022-12-19T21:05:25.809Z,0.60
2022-12-19T21:07:53.697Z,0.50
2022-12-19T21:10:21.442Z,0.50
2022-12-19T21:12:49.247Z,0.50
2022-12-19T21:15:17.592Z,0.60
2022-12-19T21:17:45.517Z,0.60
2022-12-19T21:20:15.889Z,0.60
2022-12-19T21:22:45.004Z,0.50
2022-12-19T21:25:12.894Z,0.50
2022-12-19T21:27:40.706Z,0.50
2022-12-19T21:30:10.154Z,0.60
2022-12-19T21:32:37.920Z,0.50
2022-12-19T21:35:06.320Z,0.50
2022-12-19T21:37:39.813Z,0.50
2022-12-19T21:40:13.269Z,0.50
2022-12-19T21:42:41.031Z,0.60
2022-12-19T21:45:10.151Z,0.50
2022-12-19T21:47:39.723Z,0.50
2022-12-19T21:50:08.958Z,0.50
2022-12-19T21:52:36.973Z,0.40
2022-12-19T21:55:05.177Z,0.30
2022-12-19T21:57:34.600Z,0.40
2022-12-19T22:00:03.727Z,0.40
2022-12-19T22:02:31.583Z,0.40
2022-12-19T22:04:59.559Z,0.50
2022-12-19T22:07:27.345Z,0.50
2022-12-19T22:09:55.126Z,0.50
2022-12-19T22:12:23.041Z,0.50
2022-12-19T22:14:52.280Z,0.50
2022-12-19T22:17:20.105Z,0.50
2022-12-19T22:19:47.895Z,0.50
2022-12-19T22:22:15.634Z,0.50
2022-12-19T22:24:43.557Z,0.50
2022-12-19T22:27:11.422Z,0.50
2022-12-19T22:29:39.547Z,0.50
2022-12-19T22:32:08.788Z,0.60
2022-12-19T22:34:36.557Z,0.60
2022-12-19T22:37:04.569Z,0.60
2022-12-19T22:39:32.371Z,0.60
2022-12-19T22:42:00.199Z,0.60
2022-12-19T22:44:27.974Z,0.60
2022-12-19T22:46:55.771Z,0.60
2022-12-19T22:49:24.912Z,0.70
2022-12-19T22:51:52.659Z,0.70
2022-12-19T22:54:20.431Z,0.80
2022-12-19T22:56:51.005Z,0.80
2022-12-19T22:59:18.828Z,0.80
2022-12-19T23:01:46.739Z,0.50
2022-12-19T23:04:17.373Z,0.80
2022-12-19T23:06:46.754Z,0.70
2022-12-19T23:09:17.018Z,0.70
2022-12-19T23:11:46.853Z,0.80
2022-12-19T23:14:17.537Z,0.70
2022-12-19T23:16:45.515Z,0.70
2022-12-19T23:19:14.835Z,0.70
2022-12-19T23:21:42.597Z,0.70
2022-12-19T23:24:12.715Z,0.80
2022-12-19T23:26:40.982Z,0.70
2022-12-19T23:29:13.931Z,0.70
2022-12-19T23:31:42.883Z,0.60
2022-12-19T23:34:11.358Z,0.60
2022-12-19T23:39:28.682Z,0.60
2022-12-19T23:41:56.501Z,0.60
2022-12-19T23:44:24.554Z,0.60
2022-12-19T23:46:53.218Z,0.70
2022-12-19T23:49:23.287Z,0.70
2022-12-19T23:51:51.034Z,0.60
2022-12-19T23:54:18.848Z,0.60
2022-12-19T23:56:49.444Z,0.60
2022-12-19T23:59:17.263Z,0.60
